This is the latest recevied weather packets stored in our database for station/object BMCB-27. If no packets are shown the sender has not sent any weather packets the latest 10 day(s).
| Time | Temp. | Humidity | Pressure | Rain* | Wind** | Luminosity | Snow |
|---|---|---|---|---|---|---|---|
| 1777407686 | 14.44° C | 49% | 1018.5 hPa | 0 mm | - | 0 W/m² | - |
| 1777397381 | 17.78° C | 44% | 1016.3 hPa | 0 mm | - | 106 W/m² | - |
| 1777395973 | 18.33° C | 43% | 1016.2 hPa | 0 mm | - | 158 W/m² | - |
| 1777395251 | 18.33° C | 45% | 1016.1 hPa | 0 mm | - | 182 W/m² | - |
| 1777393811 | 18.89° C | 43% | 1016 hPa | 0 mm | - | 248 W/m² | - |
| 1777393414 | 18.33° C | 43% | 1016 hPa | 0 mm | - | 256 W/m² | - |
| 1777392879 | 18.89° C | 43% | 1016 hPa | 0 mm | - | 280 W/m² | - |
| 1777389611 | 18.89° C | 43% | 1015.9 hPa | 0 mm | - | 414 W/m² | - |
| 1777383439 | 17.78° C | 47% | 1016.7 hPa | 0 mm | - | 674 W/m² | - |
| 1777382998 | 17.78° C | 47% | 1016.7 hPa | 0 mm | - | 530 W/m² | - |
| 1777377367 | 17.22° C | 48% | 1017.1 hPa | 0 mm | - | 728 W/m² | - |
| 1777367482 | 11.67° C | 66% | 1018.4 hPa | 0 mm | - | 362 W/m² | - |
| 1777366919 | 11.67° C | 66% | 1018.4 hPa | 0 mm | - | 300 W/m² | - |
| 1777364885 | 10.56° C | 67% | 1018.4 hPa | 0 mm | - | 348 W/m² | - |
| 1777360183 | 8.89° C | 71% | 1018.4 hPa | 0 mm | - | 272 W/m² | - |
| 1777357323 | 8.33° C | 72% | 1018.2 hPa | 0 mm | - | 212 W/m² | - |
| 1777349062 | 7.22° C | 70% | 1017.9 hPa | 0 mm | - | 0 W/m² | - |
| 1777348386 | 7.22° C | 70% | 1017.9 hPa | 0 mm | - | 0 W/m² | - |
| 1777347921 | 7.78° C | 69% | 1017.9 hPa | 0 mm | - | 0 W/m² | - |
| 1777345965 | 8.33° C | 67% | 1018.2 hPa | 0 mm | - | 0 W/m² | - |
| 1777344171 | 8.33° C | 67% | 1018.4 hPa | 0 mm | - | 0 W/m² | - |
| 1777342949 | 8.33° C | 68% | 1018.5 hPa | 0 mm | - | 0 W/m² | - |
| 1777341807 | 8.33° C | 67% | 1018.5 hPa | 0 mm | - | 0 W/m² | - |
| 1777338959 | 8.33° C | 69% | 1018.6 hPa | 0 mm | - | 0 W/m² | - |
| 1777337402 | 8.33° C | 69% | 1018.7 hPa | 0 mm | - | 0 W/m² | - |
* Rain latest hour (hover to see other rain measurements)
** Current wind speed in m/s (hover to see current wind gust speed)